Time;durP1;ratioP1;P1;durP2;ratioP2;P2;SDS_P1;SDS_P2;PMS_P1;PMS_P2;Temp;Humidity;BMP_temperature;BMP_pressure;BME280_temperature;BME280_humidity;BME280_pressure;Samples;Min_cycle;Max_cycle;Signal;HPM_P1;HPM_P2
2022/12/17 13:07:22;;;;;;;17.17;15.17;;;1.90;99.90;;;;;;4938926;29;20046;-90
2022/12/17 13:09:49;;;;;;;;;;;2.00;99.90;;;;;;4951346;29;20035;-90
2022/12/17 13:12:24;;;;;;;15.67;14.13;;;2.00;99.90;;;;;;4952104;29;20410;-90
2022/12/17 13:14:54;;;;;;;18.00;16.23;;;2.00;99.90;;;;;;4950656;29;20026;-90
2022/12/17 13:17:20;;;;;;;17.85;16.27;;;2.10;99.90;;;;;;4933159;28;20032;-91
2022/12/17 13:19:55;;;;;;;21.97;17.20;;;2.10;99.90;;;;;;4937591;29;20397;-89
2022/12/17 13:22:21;;;;;;;19.70;17.07;;;2.10;99.90;;;;;;4949608;29;20074;-90
2022/12/17 13:24:49;;;;;;;17.93;16.03;;;2.20;99.90;;;;;;4934230;29;20474;-90
2022/12/17 13:27:33;;;;;;;18.03;16.10;;;2.30;99.90;;;;;;4935144;29;20039;-90
2022/12/17 13:30:22;;;;;;;25.97;19.80;;;2.40;99.90;;;;;;4936271;29;20040;-90
2022/12/17 13:32:52;;;;;;;14.87;13.50;;;2.40;99.90;;;;;;4909940;29;20056;-89
2022/12/17 13:36:03;;;;;;;28.67;21.60;;;2.30;99.90;;;;;;4902144;29;20037;-88
2022/12/17 13:39:04;;;;;;;32.70;24.05;;;2.30;99.90;;;;;;4897859;29;20036;-88
2022/12/17 13:41:31;;;;;;;20.85;16.35;;;2.40;99.90;;;;;;4915182;29;20079;-88
2022/12/17 13:44:25;;;;;;;33.73;23.60;;;2.50;99.90;;;;;;4897389;29;20039;-90
2022/12/17 13:46:52;;;;;;;27.57;21.30;;;2.50;99.90;;;;;;4900123;29;20032;-90
2022/12/17 13:49:24;;;;;;;24.20;17.63;;;2.50;99.90;;;;;;4898660;29;20433;-89
2022/12/17 13:52:04;;;;;;;24.70;19.60;;;2.60;99.90;;;;;;4913696;29;20040;-89
2022/12/17 13:54:31;;;;;;;39.97;26.80;;;2.50;99.90;;;;;;4911090;29;20600;-90
2022/12/17 13:57:12;;;;;;;32.07;24.77;;;2.60;99.90;;;;;;4872305;29;20104;-89
2022/12/17 13:59:38;;;;;;;23.77;18.53;;;2.50;99.90;;;;;;4912550;29;20042;-88
2022/12/17 14:02:05;;;;;;;44.80;29.37;;;2.40;99.90;;;;;;4897711;29;20048;-89
2022/12/17 14:04:31;;;;;;;40.63;24.80;;;2.40;99.90;;;;;;4908894;29;20107;-88
2022/12/17 14:06:58;;;;;;;45.57;30.13;;;2.30;99.90;;;;;;4881415;29;20044;-88
2022/12/17 14:09:32;;;;;;;43.60;31.77;;;2.30;99.90;;;;;;4901302;29;20036;-88
2022/12/17 14:14:46;;;;;;;36.43;22.20;;;2.30;99.90;;;;;;4902543;29;20047;-89
2022/12/17 14:17:23;;;;;;;39.33;26.60;;;2.20;99.90;;;;;;4900691;29;20410;-90
2022/12/17 14:20:00;;;;;;;41.13;28.33;;;2.20;99.90;;;;;;4892355;29;20072;-90
2022/12/17 14:22:34;;;;;;;31.57;23.63;;;2.30;99.90;;;;;;4916282;29;20071;-90
2022/12/17 14:25:01;;;;;;;26.63;19.70;;;2.10;99.90;;;;;;4896360;29;20024;-90
2022/12/17 14:27:34;;;;;;;37.13;24.40;;;2.00;99.90;;;;;;4912409;29;20032;-91
2022/12/17 14:30:00;;;;;;;33.97;24.23;;;2.00;99.90;;;;;;4913449;29;20512;-89
2022/12/17 14:32:35;;;;;;;46.03;28.60;;;2.00;99.90;;;;;;4946393;28;20060;-90
2022/12/17 14:35:02;;;;;;;20.83;16.40;;;2.00;99.90;;;;;;4947876;29;20028;-90
2022/12/17 14:37:28;;;;;;;38.80;26.67;;;2.00;99.90;;;;;;4932919;29;20488;-90
2022/12/17 14:40:00;;;;;;;23.00;19.07;;;1.90;99.90;;;;;;4918243;29;20469;-90
2022/12/17 14:42:31;;;;;;;28.40;21.03;;;1.90;99.90;;;;;;4934406;29;20047;-90
2022/12/17 14:45:04;;;;;;;28.02;20.80;;;1.90;99.90;;;;;;4937722;29;20125;-91
2022/12/17 14:47:31;;;;;;;27.80;21.90;;;1.90;99.90;;;;;;4933601;29;20040;-90
2022/12/17 14:50:15;;;;;;;25.70;21.50;;;1.90;99.90;;;;;;4934159;29;20035;-91
2022/12/17 14:52:49;;;;;;;37.93;27.30;;;1.90;99.90;;;;;;4935095;29;20039;-91
2022/12/17 14:55:22;;;;;;;32.93;20.13;;;1.90;99.90;;;;;;4948702;29;20027;-90
2022/12/17 14:57:52;;;;;;;31.73;23.97;;;1.90;99.90;;;;;;4933618;29;20043;-91
2022/12/17 15:00:19;;;;;;;39.47;26.53;;;1.90;99.90;;;;;;4922390;29;20035;-90
2022/12/17 15:02:54;;;;;;;30.47;22.67;;;1.90;99.90;;;;;;4899531;29;20043;-91
2022/12/17 15:05:20;;;;;;;16.87;15.27;;;1.80;99.90;;;;;;4911844;29;20493;-91
2022/12/17 15:07:46;;;;;;;33.90;25.00;;;1.80;99.90;;;;;;4929841;29;20040;-88
2022/12/17 15:10:15;;;;;;;43.77;28.70;;;1.70;99.90;;;;;;4930456;29;20660;-90
2022/12/17 15:12:41;;;;;;;26.80;22.10;;;1.80;99.90;;;;;;4915243;29;20024;-89
2022/12/17 15:15:14;;;;;;;43.20;26.27;;;1.80;99.90;;;;;;4912691;28;20047;-89
2022/12/17 15:17:40;;;;;;;19.53;17.70;;;1.80;99.90;;;;;;4912344;29;20036;-87
2022/12/17 15:20:11;;;;;;;36.03;24.10;;;1.90;99.90;;;;;;4898206;29;20043;-89
2022/12/17 15:22:37;;;;;;;;;;;1.90;99.90;;;;;;4899554;29;20044;-89
2022/12/17 15:25:04;;;;;;;49.57;30.03;;;1.90;99.90;;;;;;4950930;29;19926;-92
2022/12/17 15:27:30;;;;;;;38.53;25.80;;;1.90;99.90;;;;;;4946715;29;20073;-95
2022/12/17 15:29:56;;;;;;;40.83;28.40;;;2.00;99.90;;;;;;4931656;29;20040;-93
2022/12/17 15:32:22;;;;;;;44.53;28.70;;;1.90;99.90;;;;;;4918070;28;20449;-90
2022/12/17 15:34:49;;;;;;;48.10;33.00;;;1.80;99.90;;;;;;4949431;29;20043;-91
2022/12/17 15:37:15;;;;;;;34.67;25.43;;;1.90;99.90;;;;;;4948470;29;20043;-91
2022/12/17 15:39:42;;;;;;;31.30;24.20;;;2.10;99.90;;;;;;4953366;29;20040;-92
2022/12/17 15:44:53;;;;;;;28.77;23.07;;;2.00;99.90;;;;;;4933720;29;20043;-91
2022/12/17 15:47:19;;;;;;;32.47;24.70;;;1.80;99.90;;;;;;4929907;28;20047;-91
2022/12/17 15:49:45;;;;;;;44.13;29.87;;;1.80;99.90;;;;;;4925823;29;20047;-91
2022/12/17 15:52:13;;;;;;;38.00;26.60;;;1.80;99.90;;;;;;4919627;29;20036;-88
2022/12/17 15:54:41;;;;;;;29.37;19.63;;;1.70;99.90;;;;;;4931117;29;20040;-88
2022/12/17 15:57:07;;;;;;;44.37;31.87;;;1.60;99.90;;;;;;4939478;29;20043;-89
2022/12/17 15:59:33;;;;;;;41.70;28.27;;;1.70;99.90;;;;;;4920061;29;20036;-88
2022/12/17 16:01:59;;;;;;;32.43;23.27;;;1.80;99.90;;;;;;4931296;28;20063;-92
2022/12/17 16:04:25;;;;;;;37.70;26.10;;;1.70;99.90;;;;;;4916931;29;20032;-92
2022/12/17 16:06:51;;;;;;;38.07;26.80;;;1.70;99.90;;;;;;4927355;29;20052;-93
2022/12/17 16:09:18;;;;;;;37.67;25.00;;;1.60;99.90;;;;;;4920346;29;20040;-92
2022/12/17 16:11:44;;;;;;;34.40;25.93;;;1.60;99.90;;;;;;4921974;29;20027;-92
2022/12/17 16:14:10;;;;;;;34.30;24.90;;;1.60;99.90;;;;;;4935635;29;20035;-92
2022/12/17 16:16:36;;;;;;;33.80;24.53;;;1.60;99.90;;;;;;4934830;28;20051;-91
2022/12/17 16:19:02;;;;;;;42.03;27.10;;;1.60;99.90;;;;;;4903003;29;20481;-90
2022/12/17 16:21:28;;;;;;;35.20;24.73;;;1.60;99.90;;;;;;4916415;29;20032;-94
2022/12/17 16:23:54;;;;;;;36.67;26.13;;;1.60;99.90;;;;;;4920531;29;20051;-94
2022/12/17 16:26:20;;;;;;;43.63;27.27;;;1.50;99.90;;;;;;4930149;29;20032;-91
2022/12/17 16:28:46;;;;;;;49.50;29.87;;;1.70;99.90;;;;;;4941125;29;20032;-91
2022/12/17 16:31:13;;;;;;;36.47;25.20;;;1.60;99.90;;;;;;4911355;29;20049;-88
2022/12/17 16:33:41;;;;;;;36.30;26.30;;;1.70;99.90;;;;;;4938297;28;20035;-90
2022/12/17 16:36:09;;;;;;;38.67;25.67;;;1.80;99.90;;;;;;4938099;29;20051;-91
2022/12/17 16:38:41;;;;;;;29.93;21.43;;;1.70;99.90;;;;;;4916190;29;20029;-89
2022/12/17 16:41:07;;;;;;;30.23;22.70;;;1.30;99.90;;;;;;4913848;29;20401;-90
2022/12/17 16:43:34;;;;;;;41.40;25.63;;;1.20;99.90;;;;;;4915418;29;20047;-91
2022/12/17 16:46:00;;;;;;;35.43;25.17;;;1.20;99.90;;;;;;4913783;28;20623;-89
2022/12/17 16:48:26;;;;;;;29.07;22.07;;;1.10;99.90;;;;;;4930072;29;20040;-90
2022/12/17 16:50:52;;;;;;;50.03;33.20;;;1.10;99.90;;;;;;4887970;29;20047;-90
2022/12/17 16:53:18;;;;;;;36.80;24.63;;;1.10;99.90;;;;;;4930961;29;20478;-91
2022/12/17 16:55:46;;;;;;;47.10;30.63;;;1.00;99.90;;;;;;4930219;29;20496;-86
2022/12/17 16:58:13;;;;;;;44.53;28.60;;;1.00;99.90;;;;;;4929525;29;20513;-90
2022/12/17 17:00:39;;;;;;;43.83;28.13;;;1.00;99.90;;;;;;4923062;28;20036;-88
2022/12/17 17:03:06;;;;;;;33.93;25.77;;;0.90;99.90;;;;;;4935269;29;20044;-93
2022/12/17 17:05:35;;;;;;;38.80;24.40;;;0.90;99.90;;;;;;4942533;29;20036;-91
2022/12/17 17:08:02;;;;;;;28.97;22.13;;;0.80;99.90;;;;;;4914692;29;20050;-91
2022/12/17 17:10:30;;;;;;;37.37;26.00;;;0.80;99.90;;;;;;4911037;29;20056;-92
2022/12/17 17:12:56;;;;;;;40.90;26.60;;;0.90;99.90;;;;;;5292233;23;20022;-93
2022/12/17 17:15:22;;;;;;;40.37;26.43;;;1.00;99.90;;;;;;4947455;28;20050;-94
2022/12/17 17:17:49;;;;;;;41.40;26.50;;;1.00;99.90;;;;;;4964520;29;20042;-92
2022/12/17 17:20:16;;;;;;;31.20;22.50;;;0.90;99.90;;;;;;4927570;29;20036;-89
2022/12/17 17:25:18;;;;;;;40.83;27.70;;;0.70;99.90;;;;;;4962028;23;19929;-92
2022/12/17 17:27:44;;;;;;;50.23;28.93;;;0.70;99.90;;;;;;4946830;29;20043;-92
2022/12/17 17:30:10;;;;;;;29.53;21.83;;;0.80;99.90;;;;;;4963267;28;20480;-91
2022/12/17 17:32:36;;;;;;;38.63;27.17;;;0.90;99.90;;;;;;5016620;23;20768;-91
2022/12/17 17:35:03;;;;;;;38.03;27.57;;;0.80;99.90;;;;;;4941185;29;20042;-91
2022/12/17 17:37:29;;;;;;;37.80;25.50;;;0.90;99.90;;;;;;4935728;29;20062;-91
2022/12/17 17:42:23;;;;;;;44.17;28.27;;;0.90;99.90;;;;;;4946765;28;20062;-94
2022/12/17 17:44:50;;;;;;;48.70;31.80;;;1.00;99.90;;;;;;4966197;28;20043;-89
2022/12/17 17:49:47;;;;;;;33.13;24.55;;;0.90;99.90;;;;;;4941036;29;20276;-92
2022/12/17 17:52:13;;;;;;;34.43;25.77;;;0.70;99.90;;;;;;4925910;29;20121;-93
2022/12/17 17:54:39;;;;;;;32.23;22.87;;;0.50;99.90;;;;;;4934990;29;20505;-86
2022/12/17 17:57:05;;;;;;;33.93;25.53;;;0.80;99.90;;;;;;4930872;29;20036;-90
2022/12/17 17:59:32;;;;;;;35.07;22.77;;;1.80;99.90;;;;;;4919534;29;20032;-91
2022/12/17 18:01:58;;;;;;;39.63;26.10;;;1.10;99.90;;;;;;4916823;29;20105;-92
2022/12/17 18:04:24;;;;;;;36.37;25.30;;;0.90;99.90;;;;;;4938253;29;20035;-92
2022/12/17 18:06:50;;;;;;;29.67;22.43;;;0.80;99.90;;;;;;4951991;29;20046;-91
2022/12/17 18:09:16;;;;;;;46.10;28.07;;;0.70;99.90;;;;;;4940143;29;20070;-92
2022/12/17 18:11:42;;;;;;;29.80;21.40;;;0.70;99.90;;;;;;4956961;28;20043;-92
2022/12/17 18:14:10;;;;;;;35.53;24.80;;;0.60;99.90;;;;;;4954943;29;20039;-91
2022/12/17 18:16:41;;;;;;;41.37;27.30;;;0.50;99.90;;;;;;4944097;28;20035;-91
2022/12/17 18:19:08;;;;;;;39.38;27.20;;;0.60;99.90;;;;;;4936799;29;20054;-91
2022/12/17 18:21:34;;;;;;;43.73;29.07;;;0.80;99.90;;;;;;4936928;29;20047;-92
2022/12/17 18:24:02;;;;;;;44.03;27.97;;;1.00;99.90;;;;;;4940034;29;20059;-90
2022/12/17 18:26:30;;;;;;;39.53;28.47;;;0.90;99.90;;;;;;4917665;29;20035;-91
2022/12/17 18:29:05;;;;;;;41.93;27.90;;;0.70;99.90;;;;;;4916521;29;20039;-92
2022/12/17 18:31:31;;;;;;;40.23;28.13;;;0.70;99.90;;;;;;4931725;28;20401;-92
2022/12/17 18:33:59;;;;;;;42.37;28.40;;;0.60;99.90;;;;;;4918302;29;20040;-91
2022/12/17 18:36:30;;;;;;;43.97;27.83;;;0.50;99.90;;;;;;4920536;29;20032;-91
2022/12/17 18:39:00;;;;;;;43.42;28.95;;;0.50;99.90;;;;;;4936294;29;20035;-91
2022/12/17 18:44:11;;;;;;;41.90;28.60;;;0.30;99.90;;;;;;4941946;29;20058;-91
2022/12/17 18:46:37;;;;;;;26.63;19.43;;;0.30;99.90;;;;;;4922534;29;20047;-92
2022/12/17 18:49:05;;;;;;;42.37;26.60;;;0.30;99.90;;;;;;4940312;29;20418;-92
2022/12/17 18:51:33;;;;;;;45.03;29.83;;;0.20;99.90;;;;;;4941267;29;20023;-91
2022/12/17 18:53:59;;;;;;;32.50;25.27;;;0.20;99.90;;;;;;4942598;29;20377;-92
2022/12/17 18:56:26;;;;;;;40.30;25.77;;;0.30;99.90;;;;;;4942480;29;20024;-91
2022/12/17 18:58:53;;;;;;;50.83;32.07;;;0.10;99.90;;;;;;4943244;29;20469;-92
2022/12/17 19:01:23;;;;;;;41.77;29.33;;;0.00;99.90;;;;;;4943095;28;20050;-90
2022/12/17 19:03:50;;;;;;;28.90;20.48;;;0.00;99.90;;;;;;4942501;29;20032;-92
2022/12/17 19:06:16;;;;;;;42.67;27.67;;;0.00;99.90;;;;;;4938718;29;20058;-92
2022/12/17 19:08:42;;;;;;;33.87;23.40;;;0.00;99.90;;;;;;4942417;29;20046;-92
2022/12/17 19:11:08;;;;;;;39.33;24.33;;;0.00;99.90;;;;;;4956425;29;20039;-92
2022/12/17 19:13:35;;;;;;;38.67;24.87;;;-0.10;99.90;;;;;;4937290;29;20035;-91
2022/12/17 19:16:15;;;;;;;39.03;23.63;;;-0.10;99.90;;;;;;4943132;28;20045;-92
2022/12/17 19:18:41;;;;;;;35.43;23.97;;;-0.10;99.90;;;;;;4955449;29;20031;-92
2022/12/17 19:21:09;;;;;;;40.90;23.30;;;-0.10;99.90;;;;;;4939947;29;20042;-92
2022/12/17 19:23:35;;;;;;;143.30;31.27;;;-0.20;99.90;;;;;;4939341;28;20032;-92
2022/12/17 19:26:14;;;;;;;37.53;24.23;;;-0.10;99.90;;;;;;4956655;29;20054;-91
2022/12/17 19:28:45;;;;;;;41.53;23.27;;;-0.20;99.90;;;;;;4956217;29;20031;-90
2022/12/17 19:31:12;;;;;;;37.23;26.60;;;-0.20;99.90;;;;;;4938073;29;20127;-92
2022/12/17 19:33:38;;;;;;;42.93;27.57;;;-0.30;99.90;;;;;;4954644;29;20038;-91
2022/12/17 19:36:09;;;;;;;36.10;22.67;;;-0.20;99.90;;;;;;4935959;29;20051;-92
2022/12/17 19:38:35;;;;;;;31.20;21.07;;;-0.10;99.90;;;;;;4938219;28;20035;-91
2022/12/17 19:41:06;;;;;;;135.50;70.60;;;-0.20;99.90;;;;;;4954299;29;20040;-91
2022/12/17 19:43:32;;;;;;;87.22;49.33;;;-0.20;99.90;;;;;;4938240;29;20513;-90
2022/12/17 19:46:06;;;;;;;63.93;37.23;;;-0.30;99.90;;;;;;4937740;28;20038;-91
2022/12/17 19:48:32;;;;;;;54.83;32.90;;;-0.30;99.90;;;;;;4953533;29;20408;-92
2022/12/17 19:50:59;;;;;;;126.13;52.70;;;-0.30;99.90;;;;;;4955392;29;20068;-91
2022/12/17 19:53:26;;;;;;;49.63;30.33;;;-0.30;99.90;;;;;;4954125;29;20034;-92
2022/12/17 19:55:53;;;;;;;41.83;26.90;;;-0.30;99.90;;;;;;4955793;29;20047;-90
2022/12/17 19:58:20;;;;;;;40.53;25.80;;;-0.40;99.90;;;;;;4956951;29;20027;-91
2022/12/17 20:00:46;;;;;;;46.33;29.63;;;-0.40;99.90;;;;;;4953193;29;20400;-92
2022/12/17 20:03:12;;;;;;;41.33;27.60;;;-0.30;99.90;;;;;;4954625;29;20086;-91
2022/12/17 20:05:42;;;;;;;45.40;29.53;;;-0.20;99.90;;;;;;4954474;29;20449;-92
2022/12/17 20:08:08;;;;;;;43.03;25.73;;;0.00;99.90;;;;;;4954368;29;20031;-91
2022/12/17 20:10:34;;;;;;;41.93;26.03;;;-0.10;99.90;;;;;;4954633;29;20042;-91
2022/12/17 20:13:00;;;;;;;46.77;29.90;;;-0.20;99.90;;;;;;4953756;29;20042;-89
2022/12/17 20:15:27;;;;;;;47.47;29.73;;;-0.30;99.90;;;;;;4953295;28;20047;-91
2022/12/17 20:17:53;;;;;;;58.70;32.97;;;-0.30;99.90;;;;;;4951604;29;20031;-91
2022/12/17 20:20:19;;;;;;;58.30;30.57;;;-0.10;99.90;;;;;;4955440;29;20039;-91
2022/12/17 20:22:45;;;;;;;68.10;37.63;;;-0.10;99.90;;;;;;4953956;29;20043;-91
2022/12/17 20:25:11;;;;;;;63.40;33.60;;;-0.10;99.90;;;;;;4933810;29;20045;-91
2022/12/17 20:27:38;;;;;;;69.20;38.20;;;0.00;99.90;;;;;;4937188;29;20043;-91
2022/12/17 20:30:04;;;;;;;62.43;36.63;;;0.20;99.90;;;;;;4936517;28;20054;-91
2022/12/17 20:32:30;;;;;;;61.33;35.97;;;0.20;99.90;;;;;;4952772;29;20039;-91
2022/12/17 20:34:57;;;;;;;57.43;33.17;;;0.20;99.90;;;;;;4953376;29;20515;-90
2022/12/17 20:37:23;;;;;;;49.50;32.40;;;0.10;99.90;;;;;;4952754;29;20060;-91
2022/12/17 20:39:49;;;;;;;48.93;29.90;;;0.10;99.90;;;;;;4954451;29;20401;-92
2022/12/17 20:42:16;;;;;;;44.87;28.97;;;0.10;99.90;;;;;;4953611;29;20031;-92
2022/12/17 20:44:43;;;;;;;177.67;35.83;;;0.20;99.90;;;;;;4953661;29;20484;-90
2022/12/17 20:47:09;;;;;;;50.03;31.10;;;0.20;99.90;;;;;;4941042;28;20114;-90
2022/12/17 20:49:35;;;;;;;45.70;28.07;;;0.40;99.90;;;;;;4934760;29;20040;-91
2022/12/17 20:52:01;;;;;;;38.03;26.87;;;0.30;99.90;;;;;;4953336;28;20040;-91
2022/12/17 20:54:28;;;;;;;38.80;25.80;;;0.20;99.90;;;;;;4955873;29;20512;-91
2022/12/17 20:56:54;;;;;;;52.90;28.57;;;0.10;99.90;;;;;;4966517;28;20040;-90
2022/12/17 20:59:20;;;;;;;38.00;26.23;;;-0.10;99.90;;;;;;4940034;29;20477;-91
2022/12/17 21:01:46;;;;;;;45.53;28.27;;;-0.10;99.90;;;;;;4950699;28;20051;-91
2022/12/17 21:04:13;;;;;;;34.77;22.23;;;-0.10;99.90;;;;;;4941916;29;20221;-91
2022/12/17 21:06:44;;;;;;;41.17;26.60;;;-0.20;99.90;;;;;;4959257;29;20027;-92
2022/12/17 21:09:10;;;;;;;38.97;27.77;;;-0.30;99.90;;;;;;4957705;29;20042;-91
2022/12/17 21:11:37;;;;;;;44.20;28.87;;;-0.20;99.90;;;;;;4957610;29;20031;-90
2022/12/17 21:14:05;;;;;;;39.50;25.87;;;-0.10;99.90;;;;;;4957664;29;20035;-91
2022/12/17 21:16:32;;;;;;;41.77;26.90;;;-0.20;99.90;;;;;;4936711;28;20036;-90
2022/12/17 21:18:58;;;;;;;50.40;28.80;;;-0.40;99.90;;;;;;4939922;29;20038;-90
2022/12/17 21:21:26;;;;;;;45.20;29.13;;;-0.50;99.90;;;;;;4969425;28;20043;-92
2022/12/17 21:23:52;;;;;;;47.50;28.77;;;-0.40;99.90;;;;;;4945845;29;20050;-92
2022/12/17 21:26:22;;;;;;;48.10;27.83;;;-0.40;99.90;;;;;;4958796;29;20031;-91
2022/12/17 21:28:50;;;;;;;51.67;32.10;;;-0.30;99.90;;;;;;4960292;29;20047;-91
2022/12/17 21:31:24;;;;;;;51.77;31.60;;;-0.40;99.90;;;;;;4942738;28;20046;-91
2022/12/17 21:33:51;;;;;;;48.63;29.30;;;-0.30;99.90;;;;;;4957151;29;20065;-90
2022/12/17 21:36:18;;;;;;;46.33;28.20;;;-0.30;99.90;;;;;;4957486;29;20042;-91
2022/12/17 21:38:45;;;;;;;50.50;30.73;;;-0.60;99.90;;;;;;4957319;29;20027;-91
2022/12/17 21:41:12;;;;;;;49.50;28.40;;;-0.80;99.90;;;;;;4957711;29;20032;-91
2022/12/17 21:43:39;;;;;;;45.00;28.73;;;-0.70;99.90;;;;;;4958214;29;20083;-91
2022/12/17 21:46:06;;;;;;;48.67;28.70;;;-0.60;99.90;;;;;;4947105;28;20508;-91
2022/12/17 21:48:33;;;;;;;38.63;24.03;;;-0.50;99.90;;;;;;4938354;29;20047;-91
2022/12/17 21:50:59;;;;;;;41.10;27.07;;;-0.60;99.90;;;;;;4939443;29;20039;-92
2022/12/17 21:53:25;;;;;;;44.70;28.07;;;-0.70;99.90;;;;;;4939885;29;20031;-90
2022/12/17 21:55:51;;;;;;;43.83;29.33;;;-0.90;99.90;;;;;;4934527;29;20032;-92
2022/12/17 21:58:18;;;;;;;41.97;29.23;;;-0.90;99.90;;;;;;4938747;29;20390;-91
2022/12/17 22:00:44;;;;;;;39.27;26.03;;;-0.80;99.90;;;;;;4937642;28;20035;-91
2022/12/17 22:03:10;;;;;;;39.80;26.17;;;-0.80;99.90;;;;;;4936193;29;20047;-91
2022/12/17 22:05:36;;;;;;;26.57;18.73;;;-0.90;99.90;;;;;;4939139;29;20031;-90
2022/12/17 22:08:03;;;;;;;36.53;24.80;;;-1.00;99.90;;;;;;4936650;29;20039;-91
2022/12/17 22:10:30;;;;;;;41.20;25.83;;;-1.10;99.90;;;;;;4938159;29;20042;-90
2022/12/17 22:15:40;;;;;;;18.80;15.30;;;-1.10;99.90;;;;;;4938996;28;20043;-90
2022/12/17 22:18:06;;;;;;;37.10;24.33;;;-1.10;99.90;;;;;;4937671;29;20067;-91
2022/12/17 22:20:32;;;;;;;40.20;26.03;;;-1.10;99.90;;;;;;4936236;29;20040;-91
2022/12/17 22:22:58;;;;;;;36.63;25.90;;;-1.00;99.90;;;;;;4968257;28;20035;-90
2022/12/17 22:25:25;;;;;;;38.70;25.23;;;-0.90;99.90;;;;;;4938367;29;20477;-91
2022/12/17 22:27:51;;;;;;;33.37;23.33;;;-1.00;99.90;;;;;;4939796;29;20031;-91
2022/12/17 22:33:02;;;;;;;39.23;22.30;;;-1.20;99.90;;;;;;4940563;29;20140;-91
2022/12/17 22:35:33;;;;;;;38.43;25.27;;;-1.20;99.90;;;;;;4935977;29;20039;-92
2022/12/17 22:38:00;;;;;;;20.23;15.97;;;-1.30;99.90;;;;;;4936618;29;20477;-90
2022/12/17 22:40:26;;;;;;;26.03;18.20;;;-1.30;99.90;;;;;;4936732;29;20031;-91
2022/12/17 22:45:38;;;;;;;41.10;26.10;;;-1.30;99.90;;;;;;4941497;28;20042;-91
2022/12/17 22:48:05;;;;;;;30.53;21.27;;;-1.30;99.90;;;;;;4935514;29;20052;-92
2022/12/17 22:50:32;;;;;;;34.60;25.07;;;-1.10;99.90;;;;;;4930521;29;20055;-91
2022/12/17 22:52:58;;;;;;;41.93;27.03;;;-1.20;99.90;;;;;;4930649;29;20039;-91
2022/12/17 22:55:24;;;;;;;37.97;26.57;;;-1.20;99.90;;;;;;4934725;29;20423;-91
2022/12/17 22:57:50;;;;;;;41.27;26.53;;;-1.00;99.90;;;;;;4933990;29;20481;-88
2022/12/17 23:00:20;;;;;;;43.57;28.80;;;-0.90;99.90;;;;;;4935254;28;20035;-89
2022/12/17 23:02:46;;;;;;;40.88;27.48;;;-0.90;99.90;;;;;;4935096;29;20035;-88
2022/12/17 23:05:13;;;;;;;42.63;30.20;;;-1.00;99.90;;;;;;4926409;29;20052;-89
2022/12/17 23:07:39;;;;;;;44.53;28.17;;;-1.10;99.90;;;;;;4929054;29;20024;-89
2022/12/17 23:10:06;;;;;;;43.17;26.70;;;-0.90;99.90;;;;;;4921467;29;20047;-89
2022/12/17 23:12:50;;;;;;;38.40;27.43;;;-1.00;99.90;;;;;;4936623;28;20047;-88
2022/12/17 23:15:27;;;;;;;39.40;28.37;;;-1.00;99.90;;;;;;4934962;28;20032;-88
2022/12/17 23:17:55;;;;;;;40.47;27.43;;;-0.80;99.90;;;;;;4935155;29;20035;-89
2022/12/17 23:20:21;;;;;;;36.40;24.90;;;-0.70;99.90;;;;;;4929433;29;20054;-86
2022/12/17 23:22:47;;;;;;;37.47;26.57;;;-0.60;99.90;;;;;;4932478;29;20040;-87
2022/12/17 23:25:13;;;;;;;39.03;26.13;;;-0.70;99.90;;;;;;4920130;29;20548;-89
2022/12/17 23:27:39;;;;;;;38.10;25.90;;;-0.50;99.90;;;;;;4919144;29;20036;-89
2022/12/17 23:30:06;;;;;;;40.67;27.40;;;-0.50;99.90;;;;;;4927075;28;20410;-88
2022/12/17 23:32:32;;;;;;;38.70;26.37;;;-0.70;99.90;;;;;;4924314;29;20042;-87
2022/12/17 23:34:59;;;;;;;41.13;26.30;;;-0.90;99.90;;;;;;4921421;29;20047;-87
2022/12/17 23:37:25;;;;;;;45.20;27.40;;;-0.70;99.90;;;;;;4918412;29;20490;-87
2022/12/17 23:39:51;;;;;;;49.30;28.63;;;-0.60;99.90;;;;;;4899635;29;20405;-88
2022/12/17 23:42:17;;;;;;;47.17;28.30;;;-0.60;99.90;;;;;;4915572;29;20035;-89
2022/12/17 23:44:43;;;;;;;47.87;28.37;;;-0.60;99.90;;;;;;4935590;29;20036;-87
2022/12/17 23:47:09;;;;;;;45.87;29.90;;;-0.60;99.90;;;;;;4933902;29;20046;-88
2022/12/17 23:49:35;;;;;;;42.33;27.43;;;-0.60;99.90;;;;;;4935188;29;20405;-89
2022/12/17 23:52:01;;;;;;;41.73;26.13;;;-0.80;99.90;;;;;;4935939;29;20059;-87
2022/12/17 23:54:28;;;;;;;36.27;24.17;;;-0.90;99.90;;;;;;4933610;29;20039;-88
2022/12/17 23:56:54;;;;;;;42.50;28.90;;;-1.20;99.90;;;;;;4934255;29;20036;-91
2022/12/17 23:59:20;;;;;;;40.80;28.57;;;-1.30;99.90;;;;;;4933824;29;20062;-90
